Time;durP1;ratioP1;P1;durP2;ratioP2;P2;SDS_P1;SDS_P2;PMS_P1;PMS_P2;Temp;Humidity;BMP_temperature;BMP_pressure;BME280_temperature;BME280_humidity;BME280_pressure;Samples;Min_cycle;Max_cycle;Signal;HPM_P1;HPM_P2
2024/01/19 00:01:57;;;;;;;81.33;38.73;;;;;;;;;;6224514;28;24428;-73
2024/01/19 00:05:00;;;;;;;81.05;37.40;;;;;;;;;;6227857;28;24421;-75
2024/01/19 00:08:02;;;;;;;84.45;38.30;;;;;;;;;;6227634;28;24630;-75
2024/01/19 00:11:05;;;;;;;84.43;39.00;;;;;;;;;;6226328;28;24466;-74
2024/01/19 00:14:07;;;;;;;83.97;39.80;;;;;;;;;;6228214;28;24548;-75
2024/01/19 00:17:10;;;;;;;84.45;39.10;;;;;;;;;;6226433;28;24812;-75
2024/01/19 00:20:12;;;;;;;83.03;40.05;;;;;;;;;;6217816;28;24531;-75
2024/01/19 00:23:14;;;;;;;83.35;39.15;;;;;;;;;;6226906;28;24840;-75
2024/01/19 00:26:18;;;;;;;90.65;41.70;;;;;;;;;;6227545;28;24416;-75
2024/01/19 00:29:20;;;;;;;87.55;39.95;;;;;;;;;;6228267;28;24629;-75
2024/01/19 00:32:23;;;;;;;90.60;41.75;;;;;;;;;;6226218;28;24424;-74
2024/01/19 00:35:25;;;;;;;89.15;40.25;;;;;;;;;;6222528;28;24841;-75
2024/01/19 00:38:27;;;;;;;83.85;39.60;;;;;;;;;;6225394;28;24425;-78
2024/01/19 00:41:30;;;;;;;87.93;40.72;;;;;;;;;;6228729;28;24419;-80
2024/01/19 00:44:32;;;;;;;85.85;40.17;;;;;;;;;;6228255;28;24706;-80
2024/01/19 00:47:35;;;;;;;84.72;40.15;;;;;;;;;;6227782;28;24415;-80
2024/01/19 00:50:37;;;;;;;81.05;38.88;;;;;;;;;;6228808;28;24417;-80
2024/01/19 00:53:39;;;;;;;76.43;38.28;;;;;;;;;;6228555;28;24654;-79
2024/01/19 00:56:41;;;;;;;81.18;40.15;;;;;;;;;;6229071;28;24694;-80
2024/01/19 00:59:42;;;;;;;81.60;39.55;;;;;;;;;;6229423;28;24506;-80
2024/01/19 01:02:46;;;;;;;81.13;39.28;;;;;;;;;;6229153;28;24424;-80
2024/01/19 01:05:48;;;;;;;79.53;37.55;;;;;;;;;;6210260;28;24470;-79
2024/01/19 01:08:49;;;;;;;78.25;38.33;;;;;;;;;;6229865;28;24435;-80
2024/01/19 01:11:51;;;;;;;73.38;36.53;;;;;;;;;;6229111;28;24424;-79
2024/01/19 01:14:53;;;;;;;77.45;37.78;;;;;;;;;;6229550;28;24833;-79
2024/01/19 01:17:57;;;;;;;77.07;36.37;;;;;;;;;;6228109;28;24424;-79
2024/01/19 01:20:59;;;;;;;76.87;36.70;;;;;;;;;;6227253;28;24443;-80
2024/01/19 01:24:01;;;;;;;73.90;35.90;;;;;;;;;;6227820;28;24420;-80
2024/01/19 01:27:02;;;;;;;78.40;38.42;;;;;;;;;;6227926;28;24670;-79
2024/01/19 01:30:07;;;;;;;75.22;36.53;;;;;;;;;;6227442;28;24836;-78
2024/01/19 01:33:11;;;;;;;73.07;35.43;;;;;;;;;;6220144;28;24458;-78
2024/01/19 01:36:13;;;;;;;83.22;37.72;;;;;;;;;;6228106;28;24425;-78
2024/01/19 01:39:15;;;;;;;75.97;38.17;;;;;;;;;;6228839;28;24431;-79
2024/01/19 01:42:17;;;;;;;81.28;39.70;;;;;;;;;;6227978;28;24416;-79
2024/01/19 01:45:19;;;;;;;79.40;39.55;;;;;;;;;;6225718;28;24427;-79
2024/01/19 01:48:23;;;;;;;80.53;40.10;;;;;;;;;;6225954;28;24856;-74
2024/01/19 01:51:25;;;;;;;87.13;41.72;;;;;;;;;;6226367;28;24419;-74
2024/01/19 01:54:27;;;;;;;85.32;42.55;;;;;;;;;;6225313;28;24423;-74
2024/01/19 01:57:29;;;;;;;83.20;42.73;;;;;;;;;;6193058;28;24471;-74
2024/01/19 02:00:31;;;;;;;86.43;42.55;;;;;;;;;;6225384;28;24445;-74
2024/01/19 02:03:36;;;;;;;88.47;42.65;;;;;;;;;;6226753;28;24424;-74
2024/01/19 02:06:38;;;;;;;87.97;44.83;;;;;;;;;;6228832;28;24412;-74
2024/01/19 02:09:40;;;;;;;89.55;44.17;;;;;;;;;;6230933;28;24425;-74
2024/01/19 02:12:42;;;;;;;93.32;46.22;;;;;;;;;;6230472;28;24822;-73
2024/01/19 02:15:44;;;;;;;89.75;44.92;;;;;;;;;;6226393;28;24440;-74
2024/01/19 02:18:49;;;;;;;92.93;45.92;;;;;;;;;;6231785;28;24428;-74
2024/01/19 02:21:53;;;;;;;95.13;46.55;;;;;;;;;;6230017;28;24475;-74
2024/01/19 02:24:57;;;;;;;95.32;47.38;;;;;;;;;;6228741;28;24483;-74
2024/01/19 02:27:58;;;;;;;96.05;45.75;;;;;;;;;;6229046;28;24876;-75
2024/01/19 02:31:01;;;;;;;96.03;47.33;;;;;;;;;;6229044;28;24488;-74
2024/01/19 02:34:02;;;;;;;95.75;47.72;;;;;;;;;;6231408;28;24435;-74
2024/01/19 02:37:04;;;;;;;102.03;49.05;;;;;;;;;;6231996;28;24431;-74
2024/01/19 02:40:10;;;;;;;97.38;46.72;;;;;;;;;;6228049;28;24875;-74
2024/01/19 02:43:12;;;;;;;98.70;47.15;;;;;;;;;;6229775;28;24444;-74
2024/01/19 02:46:15;;;;;;;102.75;48.00;;;;;;;;;;6229340;28;24813;-74
2024/01/19 02:49:17;;;;;;;103.93;48.15;;;;;;;;;;6231182;28;24424;-74
2024/01/19 02:52:19;;;;;;;105.10;47.53;;;;;;;;;;6228550;28;24419;-74
2024/01/19 02:55:22;;;;;;;102.53;47.97;;;;;;;;;;6229793;28;24416;-74
2024/01/19 02:58:24;;;;;;;95.85;46.03;;;;;;;;;;6228926;28;24427;-74
2024/01/19 03:01:26;;;;;;;102.40;47.85;;;;;;;;;;6227797;28;24666;-75
2024/01/19 03:04:28;;;;;;;89.30;43.10;;;;;;;;;;6228484;28;24428;-75
2024/01/19 03:07:29;;;;;;;92.13;44.42;;;;;;;;;;6227580;28;24899;-74
2024/01/19 03:10:33;;;;;;;81.07;38.50;;;;;;;;;;6229179;28;24427;-74
2024/01/19 03:13:35;;;;;;;80.70;39.67;;;;;;;;;;6229736;28;24435;-74
2024/01/19 03:16:41;;;;;;;68.93;33.70;;;;;;;;;;6228406;28;24419;-74
2024/01/19 03:19:44;;;;;;;64.25;31.27;;;;;;;;;;6227984;28;24428;-74
2024/01/19 03:22:46;;;;;;;61.23;32.57;;;;;;;;;;6228105;28;24423;-74
2024/01/19 03:25:50;;;;;;;62.25;32.78;;;;;;;;;;6229722;28;24428;-74
2024/01/19 03:28:51;;;;;;;64.38;33.15;;;;;;;;;;6229053;28;24824;-74
2024/01/19 03:31:53;;;;;;;62.15;31.50;;;;;;;;;;6229116;28;24427;-74
2024/01/19 03:34:55;;;;;;;55.60;29.60;;;;;;;;;;6228712;28;24503;-74
2024/01/19 03:37:57;;;;;;;57.67;30.42;;;;;;;;;;6227191;28;24479;-74
2024/01/19 03:41:01;;;;;;;64.43;32.38;;;;;;;;;;6228174;28;24417;-74
2024/01/19 03:44:04;;;;;;;66.28;32.08;;;;;;;;;;6227689;28;24421;-74
2024/01/19 03:47:05;;;;;;;64.67;32.13;;;;;;;;;;6227522;28;24424;-74
2024/01/19 03:50:08;;;;;;;69.00;32.78;;;;;;;;;;6228893;28;24427;-74
2024/01/19 03:53:10;;;;;;;69.18;32.72;;;;;;;;;;6227330;28;24416;-74
2024/01/19 03:56:14;;;;;;;71.07;33.80;;;;;;;;;;6229097;28;24471;-74
2024/01/19 03:59:15;;;;;;;72.15;35.10;;;;;;;;;;6227660;28;24848;-75
2024/01/19 04:02:17;;;;;;;76.87;34.87;;;;;;;;;;6226910;28;24558;-74
2024/01/19 04:05:19;;;;;;;70.38;33.25;;;;;;;;;;6227560;28;24420;-74
2024/01/19 04:08:21;;;;;;;77.90;35.05;;;;;;;;;;6228800;28;24424;-74
2024/01/19 04:11:24;;;;;;;75.68;34.13;;;;;;;;;;6228471;28;24690;-74
2024/01/19 04:14:26;;;;;;;77.28;33.50;;;;;;;;;;6227987;28;24424;-74
2024/01/19 04:17:28;;;;;;;70.97;32.20;;;;;;;;;;6228144;28;24432;-75
2024/01/19 04:20:30;;;;;;;77.95;34.30;;;;;;;;;;6228182;28;24436;-75
2024/01/19 04:23:31;;;;;;;73.95;32.67;;;;;;;;;;6228550;28;24427;-75
2024/01/19 04:26:35;;;;;;;75.05;32.53;;;;;;;;;;6211048;28;24428;-76
2024/01/19 04:29:37;;;;;;;65.32;30.58;;;;;;;;;;6226509;28;24443;-75
2024/01/19 04:32:38;;;;;;;66.28;31.50;;;;;;;;;;6228638;28;24436;-75
2024/01/19 04:35:41;;;;;;;67.07;29.73;;;;;;;;;;6227677;28;24824;-75
2024/01/19 04:38:42;;;;;;;64.53;30.45;;;;;;;;;;6211202;28;24523;-75
2024/01/19 04:41:46;;;;;;;59.35;28.90;;;;;;;;;;6227620;28;24717;-75
2024/01/19 04:44:48;;;;;;;60.70;28.13;;;;;;;;;;6226178;28;24449;-75
2024/01/19 04:47:50;;;;;;;57.00;28.40;;;;;;;;;;6227612;28;24504;-75
2024/01/19 04:50:52;;;;;;;56.93;27.60;;;;;;;;;;6225988;28;24503;-74
2024/01/19 04:53:53;;;;;;;56.78;27.35;;;;;;;;;;6226350;28;24460;-75
2024/01/19 04:56:57;;;;;;;54.35;26.05;;;;;;;;;;6226930;28;24417;-75
2024/01/19 04:59:58;;;;;;;52.50;26.60;;;;;;;;;;6224785;28;24470;-75
2024/01/19 05:03:01;;;;;;;51.13;25.25;;;;;;;;;;6227058;28;24511;-75
2024/01/19 05:06:03;;;;;;;47.17;25.20;;;;;;;;;;6226212;28;24474;-74
2024/01/19 05:09:05;;;;;;;47.33;23.35;;;;;;;;;;6227669;28;24427;-75
2024/01/19 05:12:09;;;;;;;44.95;23.55;;;;;;;;;;6226998;28;24484;-74
2024/01/19 05:15:11;;;;;;;48.38;23.98;;;;;;;;;;6225711;28;24432;-75
2024/01/19 05:18:13;;;;;;;45.92;22.88;;;;;;;;;;6226310;28;24455;-75
2024/01/19 05:21:15;;;;;;;49.33;24.47;;;;;;;;;;6226247;28;24712;-75
2024/01/19 05:24:18;;;;;;;47.33;24.23;;;;;;;;;;6225820;28;24433;-74
2024/01/19 05:27:21;;;;;;;48.38;25.15;;;;;;;;;;6227263;28;24446;-75
2024/01/19 05:30:24;;;;;;;46.72;24.20;;;;;;;;;;6226586;28;24424;-75
2024/01/19 05:33:26;;;;;;;43.72;23.17;;;;;;;;;;6224860;28;24526;-75
2024/01/19 05:36:28;;;;;;;45.60;23.52;;;;;;;;;;6226162;28;24467;-75
2024/01/19 05:39:30;;;;;;;45.88;23.25;;;;;;;;;;6225969;28;24494;-75
2024/01/19 05:42:33;;;;;;;43.50;23.17;;;;;;;;;;6226839;28;24440;-75
2024/01/19 05:45:37;;;;;;;44.50;24.33;;;;;;;;;;6226688;28;24432;-75
2024/01/19 05:48:39;;;;;;;44.30;23.43;;;;;;;;;;6223270;28;24472;-75
2024/01/19 05:51:43;;;;;;;41.67;22.92;;;;;;;;;;6224488;28;24428;-75
2024/01/19 05:54:45;;;;;;;43.75;23.02;;;;;;;;;;6226439;28;24435;-75
2024/01/19 05:57:49;;;;;;;42.65;22.40;;;;;;;;;;6225209;28;24634;-76
2024/01/19 06:00:51;;;;;;;42.65;23.40;;;;;;;;;;6225713;28;24662;-75
2024/01/19 06:03:53;;;;;;;40.88;22.60;;;;;;;;;;6225903;28;24671;-75
2024/01/19 06:06:55;;;;;;;44.20;23.88;;;;;;;;;;6225954;28;24705;-75
2024/01/19 06:09:56;;;;;;;44.35;23.38;;;;;;;;;;6225443;28;24428;-76
2024/01/19 06:13:00;;;;;;;42.03;22.63;;;;;;;;;;6225128;28;24436;-75
2024/01/19 06:16:03;;;;;;;38.95;22.27;;;;;;;;;;6224384;28;24464;-75
2024/01/19 06:19:04;;;;;;;38.55;21.90;;;;;;;;;;6225596;28;24436;-75
2024/01/19 06:22:06;;;;;;;39.53;21.98;;;;;;;;;;6225175;28;24440;-76
2024/01/19 06:25:09;;;;;;;37.55;21.23;;;;;;;;;;6225449;28;24447;-75
2024/01/19 06:28:12;;;;;;;35.93;21.10;;;;;;;;;;6225756;28;24447;-75
2024/01/19 06:31:14;;;;;;;36.95;21.25;;;;;;;;;;6225157;28;24468;-75
2024/01/19 06:34:16;;;;;;;35.95;20.27;;;;;;;;;;6223607;28;24821;-75
2024/01/19 06:37:18;;;;;;;35.22;20.90;;;;;;;;;;6223181;28;24630;-75
2024/01/19 06:40:20;;;;;;;38.33;21.88;;;;;;;;;;6224708;28;24423;-75
2024/01/19 06:43:23;;;;;;;38.20;21.63;;;;;;;;;;6224791;28;24517;-75
2024/01/19 06:46:25;;;;;;;39.30;23.05;;;;;;;;;;6224896;28;24413;-75
2024/01/19 06:49:27;;;;;;;38.45;21.50;;;;;;;;;;6217001;28;24490;-74
2024/01/19 06:52:29;;;;;;;38.33;21.05;;;;;;;;;;6226883;28;24420;-74
2024/01/19 06:55:31;;;;;;;38.05;21.38;;;;;;;;;;6229808;28;24829;-75
2024/01/19 06:58:34;;;;;;;38.10;20.90;;;;;;;;;;6221825;28;24534;-74
2024/01/19 07:01:38;;;;;;;38.25;22.27;;;;;;;;;;6230320;28;24491;-74
2024/01/19 07:04:40;;;;;;;35.95;21.02;;;;;;;;;;6228565;28;24828;-74
2024/01/19 07:07:42;;;;;;;38.60;21.55;;;;;;;;;;6228818;28;24423;-74
2024/01/19 07:10:44;;;;;;;37.85;21.70;;;;;;;;;;6228546;28;24409;-74
2024/01/19 07:13:48;;;;;;;38.38;21.40;;;;;;;;;;6227816;28;24431;-74
2024/01/19 07:16:50;;;;;;;40.17;22.80;;;;;;;;;;6230390;28;24530;-74
2024/01/19 07:19:52;;;;;;;41.33;23.65;;;;;;;;;;6228930;28;24495;-75
2024/01/19 07:22:54;;;;;;;44.50;23.50;;;;;;;;;;6228183;28;24439;-74
2024/01/19 07:25:55;;;;;;;39.73;23.17;;;;;;;;;;6229074;28;24451;-75
2024/01/19 07:28:59;;;;;;;41.40;23.30;;;;;;;;;;6226680;28;24507;-75
2024/01/19 07:32:01;;;;;;;37.60;21.97;;;;;;;;;;6227720;28;24544;-75
2024/01/19 07:35:04;;;;;;;38.58;22.80;;;;;;;;;;6226475;28;24439;-75
2024/01/19 07:38:07;;;;;;;36.95;21.15;;;;;;;;;;6227103;28;24425;-74
2024/01/19 07:41:11;;;;;;;38.25;22.30;;;;;;;;;;6227003;28;24463;-76
2024/01/19 07:44:15;;;;;;;39.60;22.92;;;;;;;;;;6224758;28;24499;-75
2024/01/19 07:47:16;;;;;;;44.35;24.25;;;;;;;;;;6229490;28;24435;-75
2024/01/19 07:50:18;;;;;;;41.70;23.27;;;;;;;;;;6228407;28;24431;-74
2024/01/19 07:53:20;;;;;;;44.15;22.65;;;;;;;;;;6227919;28;24571;-75
2024/01/19 07:56:22;;;;;;;43.83;24.00;;;;;;;;;;6229257;28;24425;-74
2024/01/19 07:59:25;;;;;;;41.33;22.40;;;;;;;;;;6225404;28;24428;-75
2024/01/19 08:02:27;;;;;;;43.10;23.95;;;;;;;;;;6228272;28;24817;-75
2024/01/19 08:05:29;;;;;;;46.70;24.33;;;;;;;;;;6227472;28;24836;-75
2024/01/19 08:08:33;;;;;;;46.08;24.50;;;;;;;;;;6226945;28;24631;-75
2024/01/19 08:11:35;;;;;;;47.63;25.48;;;;;;;;;;6228318;28;24483;-75
2024/01/19 08:14:38;;;;;;;49.70;26.63;;;;;;;;;;6225925;28;24432;-75
2024/01/19 08:17:40;;;;;;;50.53;26.63;;;;;;;;;;6227846;28;24471;-75
2024/01/19 08:20:42;;;;;;;58.13;29.55;;;;;;;;;;6225320;28;24805;-75
2024/01/19 08:23:43;;;;;;;56.73;28.07;;;;;;;;;;6226187;28;24888;-75
2024/01/19 08:26:46;;;;;;;53.70;25.95;;;;;;;;;;6228115;28;24467;-75
2024/01/19 08:29:49;;;;;;;50.85;24.52;;;;;;;;;;6225971;28;24687;-75
2024/01/19 08:32:51;;;;;;;52.03;25.42;;;;;;;;;;6227030;28;24429;-74
2024/01/19 08:35:53;;;;;;;52.38;26.08;;;;;;;;;;6225154;28;24428;-75
2024/01/19 08:38:56;;;;;;;56.60;26.40;;;;;;;;;;6223914;28;24432;-75
2024/01/19 08:41:58;;;;;;;54.20;26.55;;;;;;;;;;6226342;28;24432;-75
2024/01/19 08:45:02;;;;;;;62.60;29.15;;;;;;;;;;6226249;28;24429;-75
2024/01/19 08:48:04;;;;;;;60.33;28.95;;;;;;;;;;6224913;28;24650;-75
2024/01/19 08:51:06;;;;;;;59.63;28.27;;;;;;;;;;6226012;28;24688;-75
2024/01/19 08:54:08;;;;;;;61.40;27.93;;;;;;;;;;6226718;28;24470;-75
2024/01/19 08:57:10;;;;;;;61.25;28.25;;;;;;;;;;6227417;28;24670;-79
2024/01/19 09:00:15;;;;;;;58.63;28.60;;;;;;;;;;6225584;28;24634;-78
2024/01/19 09:03:17;;;;;;;55.10;27.05;;;;;;;;;;6226609;28;24432;-79
2024/01/19 09:06:19;;;;;;;56.13;27.63;;;;;;;;;;6227089;28;24474;-79
2024/01/19 09:09:20;;;;;;;52.95;26.98;;;;;;;;;;6223732;28;24436;-78
2024/01/19 09:12:22;;;;;;;47.70;25.67;;;;;;;;;;6227537;28;24875;-79
2024/01/19 09:15:28;;;;;;;50.20;24.38;;;;;;;;;;6222196;28;24844;-79
2024/01/19 09:18:29;;;;;;;42.47;23.20;;;;;;;;;;6226814;28;24436;-79
2024/01/19 09:21:31;;;;;;;46.67;24.87;;;;;;;;;;6225489;28;24412;-79
2024/01/19 09:24:33;;;;;;;45.67;24.10;;;;;;;;;;6226884;28;24432;-78
2024/01/19 09:27:35;;;;;;;46.05;24.42;;;;;;;;;;6227871;28;24420;-78
2024/01/19 09:30:39;;;;;;;41.88;23.92;;;;;;;;;;6227024;28;24659;-78
2024/01/19 09:33:41;;;;;;;38.83;21.60;;;;;;;;;;6224956;28;24864;-78
2024/01/19 09:36:43;;;;;;;39.42;21.15;;;;;;;;;;6223764;28;24432;-78
2024/01/19 09:39:45;;;;;;;37.40;21.27;;;;;;;;;;6224531;28;24444;-78
2024/01/19 09:42:46;;;;;;;35.47;20.08;;;;;;;;;;6225964;28;24494;-79
2024/01/19 09:45:52;;;;;;;33.85;19.50;;;;;;;;;;6226223;28;24479;-79
2024/01/19 09:49:00;;;;;;;32.80;18.83;;;;;;;;;;6224569;28;24826;-79
2024/01/19 09:52:08;;;;;;;32.42;18.83;;;;;;;;;;6226231;28;24420;-77
2024/01/19 09:55:11;;;;;;;29.63;17.95;;;;;;;;;;6227958;28;24638;-78
2024/01/19 09:58:13;;;;;;;31.77;18.77;;;;;;;;;;6225545;28;24459;-78
2024/01/19 10:01:17;;;;;;;31.25;18.50;;;;;;;;;;6225806;28;24475;-77
2024/01/19 10:04:20;;;;;;;28.00;18.07;;;;;;;;;;6225102;28;24447;-78
2024/01/19 10:07:22;;;;;;;29.35;18.42;;;;;;;;;;6224424;28;24688;-77
2024/01/19 10:10:25;;;;;;;28.60;17.75;;;;;;;;;;6224557;28;24650;-78
2024/01/19 10:13:27;;;;;;;29.48;17.85;;;;;;;;;;6225520;28;24600;-78
2024/01/19 10:16:33;;;;;;;33.63;19.90;;;;;;;;;;6208854;28;24619;-78
2024/01/19 10:19:35;;;;;;;30.50;19.00;;;;;;;;;;6226252;28;24511;-78
2024/01/19 10:22:38;;;;;;;36.20;20.48;;;;;;;;;;6224812;28;24409;-78
2024/01/19 10:25:40;;;;;;;37.78;21.88;;;;;;;;;;6226093;28;24428;-78
2024/01/19 10:28:42;;;;;;;38.00;21.77;;;;;;;;;;6230775;28;24416;-77
2024/01/19 10:31:47;;;;;;;37.67;22.02;;;;;;;;;;6230650;28;24424;-77
2024/01/19 10:34:52;;;;;;;38.47;21.83;;;;;;;;;;6229996;28;24427;-77
2024/01/19 10:38:04;;;;;;;37.50;22.13;;;;;;;;;;6229784;28;24432;-78
2024/01/19 10:41:15;;;;;;;41.72;23.30;;;;;;;;;;6230151;28;24462;-78
2024/01/19 10:44:19;;;;;;;43.60;24.38;;;;;;;;;;6229781;28;24432;-78
2024/01/19 10:47:23;;;;;;;46.00;24.88;;;;;;;;;;6229058;28;24467;-78
2024/01/19 10:50:26;;;;;;;42.47;22.60;;;;;;;;;;6230410;28;24435;-78
2024/01/19 10:53:29;;;;;;;43.07;24.30;;;;;;;;;;6228726;28;24424;-78
2024/01/19 10:56:30;;;;;;;41.92;23.35;;;;;;;;;;6227264;28;24463;-77
2024/01/19 10:59:34;;;;;;;39.60;23.00;;;;;;;;;;6229379;28;24421;-78
2024/01/19 11:02:37;;;;;;;43.15;22.83;;;;;;;;;;6228596;28;24443;-78
2024/01/19 11:05:40;;;;;;;41.55;23.00;;;;;;;;;;6227746;28;24416;-78
2024/01/19 11:08:42;;;;;;;43.50;23.15;;;;;;;;;;6229168;28;24419;-77
2024/01/19 11:11:49;;;;;;;45.33;23.77;;;;;;;;;;6230305;28;24481;-78
2024/01/19 11:14:55;;;;;;;47.25;23.13;;;;;;;;;;6228806;28;24872;-78
2024/01/19 11:18:00;;;;;;;41.67;22.63;;;;;;;;;;6229555;28;24479;-78
2024/01/19 11:21:05;;;;;;;41.20;22.90;;;;;;;;;;6227759;28;24444;-78
2024/01/19 11:24:09;;;;;;;42.80;22.63;;;;;;;;;;6226726;28;24478;-78
2024/01/19 11:27:15;;;;;;;41.42;22.80;;;;;;;;;;6227072;28;24802;-77
2024/01/19 11:30:39;;;;;;;43.05;22.95;;;;;;;;;;6228410;28;24431;-78
2024/01/19 11:33:42;;;;;;;41.50;21.33;;;;;;;;;;6228121;28;24420;-78
2024/01/19 11:36:51;;;;;;;41.05;21.52;;;;;;;;;;6226255;28;24786;-77
2024/01/19 11:39:52;;;;;;;38.57;21.97;;;;;;;;;;6223833;28;24435;-79
2024/01/19 11:42:54;;;;;;;38.53;22.45;;;;;;;;;;6228245;28;24635;-78
2024/01/19 11:45:56;;;;;;;38.10;21.63;;;;;;;;;;6227201;28;24428;-78
2024/01/19 11:48:59;;;;;;;35.78;20.40;;;;;;;;;;6228708;28;24425;-77
2024/01/19 11:52:02;;;;;;;33.25;19.48;;;;;;;;;;6227669;28;24455;-78
2024/01/19 11:55:53;;;;;;;32.85;19.65;;;;;;;;;;6228503;28;24475;-78
2024/01/19 11:58:55;;;;;;;34.63;19.88;;;;;;;;;;6227271;28;24428;-79
2024/01/19 12:01:56;;;;;;;36.50;20.50;;;;;;;;;;6226925;28;24421;-78
2024/01/19 12:05:02;;;;;;;37.10;20.50;;;;;;;;;;6225582;28;24425;-78
2024/01/19 12:08:05;;;;;;;32.57;19.07;;;;;;;;;;6228694;28;24543;-79
2024/01/19 12:11:11;;;;;;;35.45;19.75;;;;;;;;;;6237024;28;24425;-79
2024/01/19 12:14:14;;;;;;;38.60;21.55;;;;;;;;;;6229116;28;24840;-79
2024/01/19 12:17:16;;;;;;;34.40;19.47;;;;;;;;;;6229220;28;24981;-79
2024/01/19 12:20:19;;;;;;;33.90;19.52;;;;;;;;;;6227433;28;24824;-78
2024/01/19 12:23:21;;;;;;;32.20;19.13;;;;;;;;;;6211766;28;24690;-78
2024/01/19 12:26:24;;;;;;;32.17;18.80;;;;;;;;;;6226355;28;24832;-75
2024/01/19 12:29:36;;;;;;;31.42;18.80;;;;;;;;;;6228984;28;24419;-75
2024/01/19 12:32:38;;;;;;;32.42;17.90;;;;;;;;;;6228903;28;24424;-75
2024/01/19 12:35:41;;;;;;;29.70;16.92;;;;;;;;;;6226896;28;24428;-76
2024/01/19 12:38:44;;;;;;;30.40;17.10;;;;;;;;;;6225849;28;24475;-75
2024/01/19 12:41:59;;;;;;;29.90;17.57;;;;;;;;;;6228263;28;24463;-75
2024/01/19 12:45:01;;;;;;;29.48;17.35;;;;;;;;;;6226966;28;24848;-75
2024/01/19 12:48:03;;;;;;;29.30;17.57;;;;;;;;;;6226173;28;24510;-74
2024/01/19 12:51:08;;;;;;;28.55;16.67;;;;;;;;;;6226978;28;24762;-74
2024/01/19 12:54:12;;;;;;;29.55;17.35;;;;;;;;;;6227297;28;24658;-75
2024/01/19 12:57:17;;;;;;;28.17;16.88;;;;;;;;;;6228063;28;24417;-75
2024/01/19 13:00:24;;;;;;;26.50;16.48;;;;;;;;;;6225969;28;24840;-74
2024/01/19 13:03:26;;;;;;;28.53;17.13;;;;;;;;;;6224590;28;24458;-75
2024/01/19 13:06:29;;;;;;;30.00;17.65;;;;;;;;;;6229650;28;24455;-75
2024/01/19 13:09:31;;;;;;;25.50;16.25;;;;;;;;;;6226426;28;24432;-75
2024/01/19 13:12:33;;;;;;;27.83;16.93;;;;;;;;;;6227087;28;24487;-75
2024/01/19 13:15:35;;;;;;;28.75;16.73;;;;;;;;;;6226871;28;24439;-75
2024/01/19 13:18:39;;;;;;;28.30;17.23;;;;;;;;;;6227316;28;24656;-75
2024/01/19 13:21:42;;;;;;;28.00;17.23;;;;;;;;;;6226913;28;24502;-75
2024/01/19 13:24:46;;;;;;;26.90;16.42;;;;;;;;;;6197250;28;24662;-75
2024/01/19 13:27:48;;;;;;;26.23;16.50;;;;;;;;;;6225191;28;24491;-75
2024/01/19 13:30:50;;;;;;;25.88;16.42;;;;;;;;;;6226985;28;24417;-75
2024/01/19 13:33:51;;;;;;;26.47;16.27;;;;;;;;;;6227249;28;24847;-74
2024/01/19 13:36:55;;;;;;;24.37;16.40;;;;;;;;;;6225550;28;24431;-75
2024/01/19 13:39:57;;;;;;;24.48;15.77;;;;;;;;;;6226512;28;24432;-75
2024/01/19 13:42:59;;;;;;;26.33;17.50;;;;;;;;;;6223687;28;24668;-76
2024/01/19 13:46:01;;;;;;;27.00;16.75;;;;;;;;;;6225628;28;24672;-74
2024/01/19 13:49:03;;;;;;;26.15;16.73;;;;;;;;;;6216212;28;24861;-76
2024/01/19 13:52:08;;;;;;;25.65;16.65;;;;;;;;;;6241909;28;24478;-75
2024/01/19 13:55:09;;;;;;;25.80;17.15;;;;;;;;;;6227381;28;24412;-75
2024/01/19 13:58:11;;;;;;;26.85;17.75;;;;;;;;;;6225271;28;24431;-74
2024/01/19 14:01:14;;;;;;;25.73;16.95;;;;;;;;;;6226741;28;24494;-75
2024/01/19 14:04:16;;;;;;;26.40;17.38;;;;;;;;;;6226324;28;24853;-75
2024/01/19 14:07:20;;;;;;;27.48;17.05;;;;;;;;;;6226424;28;24459;-75
2024/01/19 14:10:22;;;;;;;30.17;18.98;;;;;;;;;;6224805;28;24412;-75
2024/01/19 14:13:24;;;;;;;29.80;18.52;;;;;;;;;;6225753;28;24808;-75
2024/01/19 14:16:26;;;;;;;30.13;19.15;;;;;;;;;;6226861;28;24620;-75
2024/01/19 14:19:29;;;;;;;36.57;20.53;;;;;;;;;;6225613;28;24435;-76
2024/01/19 14:22:32;;;;;;;35.00;20.20;;;;;;;;;;6225257;28;24821;-75
2024/01/19 14:25:36;;;;;;;37.63;20.83;;;;;;;;;;6224926;28;24846;-75
2024/01/19 14:28:40;;;;;;;37.20;21.00;;;;;;;;;;6226122;28;24432;-73
2024/01/19 14:31:42;;;;;;;36.45;21.30;;;;;;;;;;6225678;28;24440;-73
2024/01/19 14:34:44;;;;;;;39.70;21.48;;;;;;;;;;6208651;28;24500;-75
2024/01/19 14:37:48;;;;;;;39.15;21.75;;;;;;;;;;6224114;28;24432;-75
2024/01/19 14:40:50;;;;;;;36.42;20.88;;;;;;;;;;6225848;28;24840;-76
2024/01/19 14:43:52;;;;;;;37.20;20.43;;;;;;;;;;6225471;28;24424;-76
2024/01/19 14:46:54;;;;;;;39.88;21.50;;;;;;;;;;6224648;28;24630;-75
2024/01/19 14:49:56;;;;;;;35.45;20.13;;;;;;;;;;6224637;28;24433;-74
2024/01/19 14:53:00;;;;;;;41.95;22.63;;;;;;;;;;6225520;28;24467;-75
2024/01/19 14:56:02;;;;;;;73.72;37.88;;;;;;;;;;6224965;28;24798;-75
2024/01/19 14:59:06;;;;;;;70.38;33.70;;;;;;;;;;6225281;28;24412;-75
2024/01/19 15:02:08;;;;;;;49.42;23.45;;;;;;;;;;6227777;28;24425;-75
2024/01/19 15:05:10;;;;;;;43.20;22.00;;;;;;;;;;6227981;28;24838;-75
2024/01/19 15:08:13;;;;;;;50.55;25.55;;;;;;;;;;6226952;28;24806;-75
2024/01/19 15:11:15;;;;;;;49.60;24.00;;;;;;;;;;6224086;28;24440;-76
2024/01/19 15:14:17;;;;;;;25.42;13.68;;;;;;;;;;6225992;28;24563;-75
2024/01/19 15:17:19;;;;;;;26.37;13.90;;;;;;;;;;6228841;28;24420;-75
2024/01/19 15:20:21;;;;;;;24.00;13.35;;;;;;;;;;6230996;28;24439;-76
2024/01/19 15:23:25;;;;;;;22.42;12.55;;;;;;;;;;6234364;28;24542;-74
2024/01/19 15:26:27;;;;;;;20.30;11.55;;;;;;;;;;6229757;28;24417;-75
2024/01/19 15:29:29;;;;;;;19.45;10.93;;;;;;;;;;6225346;28;24440;-76
2024/01/19 15:32:34;;;;;;;20.58;11.35;;;;;;;;;;6226936;28;24438;-76
2024/01/19 15:35:36;;;;;;;19.73;10.90;;;;;;;;;;6229602;28;24478;-75
2024/01/19 15:38:39;;;;;;;18.60;10.70;;;;;;;;;;6229049;28;24621;-76
2024/01/19 15:41:42;;;;;;;19.60;10.52;;;;;;;;;;6229561;28;24557;-75
2024/01/19 15:44:44;;;;;;;19.25;9.10;;;;;;;;;;6227046;28;24432;-76
2024/01/19 15:47:46;;;;;;;13.07;7.72;;;;;;;;;;6226597;28;24432;-78
2024/01/19 15:50:48;;;;;;;12.55;6.63;;;;;;;;;;6228092;28;24547;-76
2024/01/19 15:53:52;;;;;;;9.75;5.30;;;;;;;;;;6228954;28;24853;-75
2024/01/19 15:56:53;;;;;;;10.18;5.30;;;;;;;;;;6230327;28;24474;-76
2024/01/19 15:59:55;;;;;;;7.88;4.30;;;;;;;;;;6228434;28;24431;-75
2024/01/19 16:02:57;;;;;;;5.40;3.00;;;;;;;;;;6224671;28;24440;-76
2024/01/19 16:06:03;;;;;;;4.75;2.67;;;;;;;;;;6225370;28;24428;-77
2024/01/19 16:09:07;;;;;;;3.83;2.13;;;;;;;;;;6228733;28;24430;-76
2024/01/19 16:12:09;;;;;;;4.15;1.95;;;;;;;;;;6227829;28;24499;-76
2024/01/19 16:15:11;;;;;;;4.00;2.20;;;;;;;;;;6228993;28;24635;-76
2024/01/19 16:18:13;;;;;;;2.90;1.90;;;;;;;;;;6227965;28;24431;-75
2024/01/19 16:21:20;;;;;;;3.95;2.05;;;;;;;;;;6226158;28;24429;-75
2024/01/19 16:24:25;;;;;;;2.88;1.60;;;;;;;;;;6225975;28;24440;-75
2024/01/19 16:27:28;;;;;;;3.42;2.03;;;;;;;;;;6226923;28;24425;-74
2024/01/19 16:30:30;;;;;;;2.28;1.50;;;;;;;;;;6224246;28;24871;-75
2024/01/19 16:33:32;;;;;;;2.08;1.70;;;;;;;;;;6225921;28;24475;-74
2024/01/19 16:36:34;;;;;;;2.65;1.90;;;;;;;;;;6225747;28;24495;-74
2024/01/19 16:39:38;;;;;;;1.80;1.50;;;;;;;;;;6225021;28;24833;-74
2024/01/19 16:42:39;;;;;;;1.60;1.40;;;;;;;;;;6225629;28;24432;-74
2024/01/19 16:45:41;;;;;;;1.60;1.40;;;;;;;;;;6224530;28;25140;-75
2024/01/19 16:48:44;;;;;;;2.00;1.45;;;;;;;;;;6228751;28;24427;-74
2024/01/19 16:51:47;;;;;;;1.70;1.50;;;;;;;;;;6222573;28;24432;-74
2024/01/19 16:54:50;;;;;;;3.13;1.75;;;;;;;;;;6225486;28;24456;-74
2024/01/19 16:57:52;;;;;;;1.95;1.48;;;;;;;;;;6226026;28;24464;-75
2024/01/19 17:00:54;;;;;;;3.45;2.00;;;;;;;;;;6223702;28;24428;-74
2024/01/19 17:03:58;;;;;;;2.05;1.85;;;;;;;;;;6226133;28;24435;-75
2024/01/19 17:07:00;;;;;;;2.10;1.90;;;;;;;;;;6227066;28;24677;-75
2024/01/19 17:10:04;;;;;;;4.13;2.20;;;;;;;;;;6225610;28;24809;-75
2024/01/19 17:13:08;;;;;;;4.78;2.38;;;;;;;;;;6225389;28;24452;-75
2024/01/19 17:16:09;;;;;;;3.20;2.70;;;;;;;;;;6224780;28;24510;-74
2024/01/19 17:19:12;;;;;;;3.00;2.70;;;;;;;;;;6225090;28;24428;-75
2024/01/19 17:22:13;;;;;;;3.58;3.00;;;;;;;;;;6222040;28;24514;-75
2024/01/19 17:25:16;;;;;;;3.57;2.90;;;;;;;;;;6225246;28;24456;-76
2024/01/19 17:28:20;;;;;;;3.08;2.70;;;;;;;;;;6226489;28;24459;-75
2024/01/19 17:31:21;;;;;;;2.80;2.50;;;;;;;;;;6224855;28;24660;-75
2024/01/19 17:34:23;;;;;;;4.10;2.67;;;;;;;;;;6225669;28;24479;-75
2024/01/19 17:37:25;;;;;;;3.42;2.50;;;;;;;;;;6222946;28;24504;-75
2024/01/19 17:40:28;;;;;;;3.57;2.67;;;;;;;;;;6225115;28;24423;-73
2024/01/19 17:43:31;;;;;;;4.50;2.60;;;;;;;;;;6223651;28;24424;-75
2024/01/19 17:46:32;;;;;;;3.10;2.63;;;;;;;;;;6224060;28;24424;-74